Vallecitos, NM (87581)

11:14 PM MDT on September 30, 2016 (GMT -0600)
El Ojito | | Change Station

Elev 7359 ft 36.43 °N, 106.04 °W | Updated 6 minutes ago

Overcast
Overcast
54.8 °F
Feels Like 54.8 °F
N
0.0
Wind Variable Wind from ENE
Gusts 2.0 mph

Today
High -- | Low -- °F
--% Chance of Precip.
Yesterday
High -- | Low -- °F
Precip. -- in
Pressure 30.29 in
Visibility 10.0 miles
Clouds Mostly Cloudy 8000 ft
Overcast 11000 ft
Dew Point 39 °F
Humidity 56%
Rainfall 0.00 in
Snow Depth Not available.
6:59 AM 6:48 PM
New Moon, 0% visible
METAR KSKX 010455Z AUTO 00000KT 10SM BKN080 OVC110 11/M02 A3029 RMK AO1
Pressure 30.29 in
Visibility 10.0 miles
Clouds Mostly Cloudy 8000 ft
Overcast 11000 ft
Dew Point 39 °F
Humidity 56%
Rainfall 0.00 in
Snow Depth Not available.
6:59 AM 6:48 PM
New Moon, 0% visible
METAR KSKX 010455Z AUTO 00000KT 10SM BKN080 OVC110 11/M02 A3029 RMK AO1

10-Day Weather Forecast

Almanac

Astronomy

Sep. 30, 2016 Rise Set
Actual Time
Civil Twilight
Nautical Twilight
Astronomical Twilight
Moon
Length of Visible Light
Length of Day
Tomorrow will be .
, % of the Moon is Illuminated

Today's Extremes

State Highs State Lows

Community

WunderPhotos

Upload Photos

1,942,894 photos uploaded!

WunderBlog® & News

Nearby

Air Quality

  Air Quality AQ Index Pollutant
Not available.

Snow Depth

Station Depth Elevation

Earthquake Activity

City Distance Mag. Time & Date
Minimum magnitude displayed is 2.5.

Coastal Water Temperatures

Place Temperature

Stations

Nearby Weather Stations

Station Location Temp. Windchill Dew Point Humidity Wind Precip. Elev Updated Type
                   

Watches & Warnings

There are currently no watches in effect.